Queen Of Cowichan — CZ4990 — position and weather

sailwx.info

Track history (hours):
 
Tides and Currents Weather Stations Pressure Air Temp Water Temp Dewpoint Dewpoint Depression Visibility Wind Speed Wind Dir Waves Ship Positions

Queen Of Cowichan

Last reported at 2016-Oct-19 14:31 UTC. Time now 2016-Dec-07 16:19 UTC.
Position N 49°07' W 123°05'.
Warning: this ship's position is 49 days out of date.

Length 139 m; draft 5.5 m.

Type: Passenger vessel. MMSI: 316001251.

Date/timePositionNaut miles runAvg speedWind from/ knotsBaromVisibWave heightAir tempDewpointWater temp
2016-Oct-19 14:31N 49°07' W 123°05'0 0.0
2016-Oct-19 12:31N 49°07' W 123°05'0 0.0
2016-Oct-19 01:31N 49°07' W 123°05'0 0.0
2016-Oct-18 21:31N 49°07' W 123°05'0 0.0
2016-Oct-18 18:31N 49°07' W 123°05'27 6.8
2016-Oct-18 14:33N 49°13' W 123°45'8 7.8
2016-Oct-18 13:33N 49°12' W 123°57'0 0.0
2016-Oct-18 10:31N 49°12' W 123°57'0 0.0
2016-Oct-18 09:28N 49°12' W 123°57'0 0.0
2016-Oct-18 07:31N 49°12' W 123°57'0 0.0
2016-Oct-18 02:31N 49°12' W 123°57'0 0.0
2016-Oct-18 01:31N 49°12' W 123°57'0 0.0
2016-Oct-17 19:13N 49°12' W 123°57'0 0.0
2016-Oct-17 16:31N 49°12' W 123°57'0 0.0
2016-Oct-17 15:10N 49°12' W 123°57'0 0.0
2016-Oct-17 13:28N 49°12' W 123°57'0 0.0
2016-Oct-17 12:31N 49°12' W 123°57'0 0.0
2016-Oct-17 11:31N 49°12' W 123°57'0 0.0
2016-Oct-17 02:16N 49°12' W 123°57'0 0.0
2016-Oct-17 01:16N 49°12' W 123°57'0 0.0
2016-Oct-16 17:31N 49°12' W 123°57'0 0.0
2016-Oct-16 14:28N 49°12' W 123°57'0 0.0
2016-Oct-16 12:28N 49°12' W 123°57'0 0.0
2016-Oct-16 11:28N 49°12' W 123°57'0 0.0
2016-Oct-16 10:28N 49°12' W 123°57'0 0.0
2016-Oct-16 09:10N 49°12' W 123°57'0 0.0
2016-Oct-16 05:31N 49°12' W 123°57'0 0.0
2016-Oct-16 04:31N 49°12' W 123°57'0 0.0
2016-Oct-16 02:31N 49°12' W 123°57'0 0.0
2016-Oct-16 01:25N 49°12' W 123°57'0 0.0
2016-Oct-15 23:22N 49°12' W 123°57'0 0.0
2016-Oct-15 22:31N 49°12' W 123°57'0 0.0
2016-Oct-15 19:28N 49°12' W 123°57'0 0.0
2016-Oct-15 17:31N 49°12' W 123°57'0 0.0
2016-Oct-15 16:28N 49°12' W 123°57'0 0.0
2016-Oct-15 14:28N 49°12' W 123°57'0 0.0
2016-Oct-15 11:28N 49°12' W 123°57'0 0.0
2016-Oct-15 06:31N 49°12' W 123°57'0 0.0
2016-Oct-15 04:31N 49°12' W 123°57'0 0.0
2016-Oct-14 23:31N 49°12' W 123°57'0 0.0
2016-Oct-14 18:32N 49°12' W 123°57'0 0.0
2016-Oct-14 17:26N 49°12' W 123°57'0 0.0
2016-Oct-14 16:32N 49°12' W 123°57'0 0.0
2016-Oct-14 15:32N 49°12' W 123°57'0 0.0
2016-Oct-14 14:32N 49°12' W 123°57'0 0.0
2016-Oct-14 13:29N 49°12' W 123°57'0 0.0
2016-Oct-14 11:29N 49°12' W 123°57'0 0.0
2016-Oct-14 10:32N 49°12' W 123°57'0 0.0
2016-Oct-14 09:17N 49°12' W 123°57'0 0.0
2016-Oct-14 07:32N 49°12' W 123°57'0 0.0
2016-Oct-14 02:20N 49°12' W 123°57'0 0.0
2016-Oct-13 22:20N 49°12' W 123°57'0 0.0
2016-Oct-13 21:32N 49°12' W 123°57'0 0.0
2016-Oct-13 17:29N 49°12' W 123°57'0 0.0
2016-Oct-13 14:17N 49°12' W 123°57'0 0.0
2016-Oct-13 13:29N 49°12' W 123°57'0 0.0
2016-Oct-13 12:20N 49°12' W 123°57'0 0.0
2016-Oct-13 06:26N 49°12' W 123°57'0 0.0
2016-Oct-13 03:20N 49°12' W 123°57'0 0.0
2016-Oct-13 01:26N 49°12' W 123°57'0 0.0
2016-Oct-13 00:26N 49°12' W 123°57'0 0.0
2016-Oct-12 22:32N 49°12' W 123°57'0 0.0
2016-Oct-12 21:29N 49°12' W 123°57'0 0.0
2016-Oct-12 19:32N 49°12' W 123°57'0 0.0
2016-Oct-12 18:26N 49°12' W 123°57'0 0.0
2016-Oct-12 17:29N 49°12' W 123°57'0 0.0
2016-Oct-12 13:32N 49°12' W 123°57'0 0.0
2016-Oct-12 11:32N 49°12' W 123°57'0 0.0
2016-Oct-12 10:32N 49°12' W 123°57'0 0.0
2016-Oct-12 07:32N 49°12' W 123°57'0 0.0
2016-Oct-12 03:08N 49°12' W 123°57'0 0.0
2016-Oct-12 01:32N 49°12' W 123°57'0 0.0
2016-Oct-11 20:32N 49°12' W 123°57'0 0.0
2016-Oct-11 19:20N 49°12' W 123°57'0 0.0
2016-Oct-11 17:29N 49°12' W 123°57'0 0.0
2016-Oct-11 14:32N 49°12' W 123°57'0 0.0
2016-Oct-11 09:32N 49°12' W 123°57'29 4.8
2016-Oct-11 03:34N 49°23' W 123°16'9 9.3
2016-Oct-11 02:33N 49°18' W 123°28'2016.2
2016-Oct-11 01:20N 49°12' W 123°57'2715.0
2016-Oct-10 23:34N 49°21' W 123°19'2 1.9
2016-Oct-10 22:34N 49°20' W 123°21'25 3.2
2016-Oct-10 14:33N 49°12' W 123°57'0 0.0
2016-Oct-10 13:33N 49°12' W 123°57'0 0.0
2016-Oct-10 12:27N 49°12' W 123°57'0 0.0
2016-Oct-10 09:33N 49°12' W 123°57'0 0.0
2016-Oct-10 07:15N 49°12' W 123°57'0 0.0
2016-Oct-10 01:33N 49°12' W 123°57'0 0.0
2016-Oct-10 00:33N 49°12' W 123°57'0 0.0
2016-Oct-09 22:33N 49°12' W 123°57'0 0.0
2016-Oct-09 17:33N 49°12' W 123°57'0 0.0
2016-Oct-09 16:30N 49°12' W 123°57'  
Track history (hours):
 
Tides and Currents Weather Stations Pressure Air Temp Water Temp Dewpoint Dewpoint Depression Visibility Wind Speed Wind Dir Waves Ship Positions

Queen Of Cowichan

Last reported at 2016-Oct-19 14:31 UTC. Time now 2016-Dec-07 16:19 UTC.
Position N 49°07' W 123°05'.
Warning: this ship's position is 49 days out of date.

Length 139 m; draft 5.5 m.

Type: Passenger vessel. MMSI: 316001251.

Date/timePositionNaut miles runAvg speedWind from/ knotsBaromVisibWave heightAir tempDewpointWater temp
2016-Oct-19 14:31N 49°07' W 123°05'0 0.0
2016-Oct-19 12:31N 49°07' W 123°05'0 0.0
2016-Oct-19 01:31N 49°07' W 123°05'0 0.0
2016-Oct-18 21:31N 49°07' W 123°05'0 0.0
2016-Oct-18 18:31N 49°07' W 123°05'27 6.8
2016-Oct-18 14:33N 49°13' W 123°45'8 7.8
2016-Oct-18 13:33N 49°12' W 123°57'0 0.0
2016-Oct-18 10:31N 49°12' W 123°57'0 0.0
2016-Oct-18 09:28N 49°12' W 123°57'0 0.0
2016-Oct-18 07:31N 49°12' W 123°57'0 0.0
2016-Oct-18 02:31N 49°12' W 123°57'0 0.0
2016-Oct-18 01:31N 49°12' W 123°57'0 0.0
2016-Oct-17 19:13N 49°12' W 123°57'0 0.0
2016-Oct-17 16:31N 49°12' W 123°57'0 0.0
2016-Oct-17 15:10N 49°12' W 123°57'0 0.0
2016-Oct-17 13:28N 49°12' W 123°57'0 0.0
2016-Oct-17 12:31N 49°12' W 123°57'0 0.0
2016-Oct-17 11:31N 49°12' W 123°57'0 0.0
2016-Oct-17 02:16N 49°12' W 123°57'0 0.0
2016-Oct-17 01:16N 49°12' W 123°57'0 0.0
2016-Oct-16 17:31N 49°12' W 123°57'0 0.0
2016-Oct-16 14:28N 49°12' W 123°57'0 0.0
2016-Oct-16 12:28N 49°12' W 123°57'0 0.0
2016-Oct-16 11:28N 49°12' W 123°57'0 0.0
2016-Oct-16 10:28N 49°12' W 123°57'0 0.0
2016-Oct-16 09:10N 49°12' W 123°57'0 0.0
2016-Oct-16 05:31N 49°12' W 123°57'0 0.0
2016-Oct-16 04:31N 49°12' W 123°57'0 0.0
2016-Oct-16 02:31N 49°12' W 123°57'0 0.0
2016-Oct-16 01:25N 49°12' W 123°57'0 0.0
2016-Oct-15 23:22N 49°12' W 123°57'0 0.0
2016-Oct-15 22:31N 49°12' W 123°57'0 0.0
2016-Oct-15 19:28N 49°12' W 123°57'0 0.0
2016-Oct-15 17:31N 49°12' W 123°57'0 0.0
2016-Oct-15 16:28N 49°12' W 123°57'0 0.0
2016-Oct-15 14:28N 49°12' W 123°57'0 0.0
2016-Oct-15 11:28N 49°12' W 123°57'0 0.0
2016-Oct-15 06:31N 49°12' W 123°57'0 0.0
2016-Oct-15 04:31N 49°12' W 123°57'0 0.0
2016-Oct-14 23:31N 49°12' W 123°57'0 0.0
2016-Oct-14 18:32N 49°12' W 123°57'0 0.0
2016-Oct-14 17:26N 49°12' W 123°57'0 0.0
2016-Oct-14 16:32N 49°12' W 123°57'0 0.0
2016-Oct-14 15:32N 49°12' W 123°57'0 0.0
2016-Oct-14 14:32N 49°12' W 123°57'0 0.0
2016-Oct-14 13:29N 49°12' W 123°57'0 0.0
2016-Oct-14 11:29N 49°12' W 123°57'0 0.0
2016-Oct-14 10:32N 49°12' W 123°57'0 0.0
2016-Oct-14 09:17N 49°12' W 123°57'0 0.0
2016-Oct-14 07:32N 49°12' W 123°57'0 0.0
2016-Oct-14 02:20N 49°12' W 123°57'0 0.0
2016-Oct-13 22:20N 49°12' W 123°57'0 0.0
2016-Oct-13 21:32N 49°12' W 123°57'0 0.0
2016-Oct-13 17:29N 49°12' W 123°57'0 0.0
2016-Oct-13 14:17N 49°12' W 123°57'0 0.0
2016-Oct-13 13:29N 49°12' W 123°57'0 0.0
2016-Oct-13 12:20N 49°12' W 123°57'0 0.0
2016-Oct-13 06:26N 49°12' W 123°57'0 0.0
2016-Oct-13 03:20N 49°12' W 123°57'0 0.0
2016-Oct-13 01:26N 49°12' W 123°57'0 0.0
2016-Oct-13 00:26N 49°12' W 123°57'0 0.0
2016-Oct-12 22:32N 49°12' W 123°57'0 0.0
2016-Oct-12 21:29N 49°12' W 123°57'0 0.0
2016-Oct-12 19:32N 49°12' W 123°57'0 0.0
2016-Oct-12 18:26N 49°12' W 123°57'0 0.0
2016-Oct-12 17:29N 49°12' W 123°57'0 0.0
2016-Oct-12 13:32N 49°12' W 123°57'0 0.0
2016-Oct-12 11:32N 49°12' W 123°57'0 0.0
2016-Oct-12 10:32N 49°12' W 123°57'0 0.0
2016-Oct-12 07:32N 49°12' W 123°57'0 0.0
2016-Oct-12 03:08N 49°12' W 123°57'0 0.0
2016-Oct-12 01:32N 49°12' W 123°57'0 0.0
2016-Oct-11 20:32N 49°12' W 123°57'0 0.0
2016-Oct-11 19:20N 49°12' W 123°57'0 0.0
2016-Oct-11 17:29N 49°12' W 123°57'0 0.0
2016-Oct-11 14:32N 49°12' W 123°57'0 0.0
2016-Oct-11 09:32N 49°12' W 123°57'29 4.8
2016-Oct-11 03:34N 49°23' W 123°16'9 9.3
2016-Oct-11 02:33N 49°18' W 123°28'2016.2
2016-Oct-11 01:20N 49°12' W 123°57'2715.0
2016-Oct-10 23:34N 49°21' W 123°19'2 1.9
2016-Oct-10 22:34N 49°20' W 123°21'25 3.2
2016-Oct-10 14:33N 49°12' W 123°57'0 0.0
2016-Oct-10 13:33N 49°12' W 123°57'0 0.0
2016-Oct-10 12:27N 49°12' W 123°57'0 0.0
2016-Oct-10 09:33N 49°12' W 123°57'0 0.0
2016-Oct-10 07:15N 49°12' W 123°57'0 0.0
2016-Oct-10 01:33N 49°12' W 123°57'0 0.0
2016-Oct-10 00:33N 49°12' W 123°57'0 0.0
2016-Oct-09 22:33N 49°12' W 123°57'0 0.0
2016-Oct-09 17:33N 49°12' W 123°57'0 0.0
2016-Oct-09 16:30N 49°12' W 123°57'  

Dump ship's entire track history